Onalaska, Wisconsin
Current Conditions -  °F | °C
As of 6:53 AM on Sunday 23 Nov 2014 (Local Time) from KLSE Reporting Station
Light Rain Light Rain  
Wind Chill: 51°   Ceiling: 1000
Heat Index: 51°   Visibility: 5mi
Dew Point: 48°   Wind: 15mph
Humidity: 89%   Direction: 180°S
Pressure: 29.54"   Gusts: NA
Location:  43.88°N, 91.22°W
Report Text: KLSE 231253Z 18013KT 5SM -RA BR FEW006 OVC010 11/09 A2954 RMK AO2 RAB40 CIG 008V013 SLP007 P0000 T01060089
Loading
Personal Weather Stations






























Interactive Weather Map New forecast layout! Learn more

10-Day Weather Forecast

Advertisements
Track Severe Weather on mobile